createdAt,value
2022-12-25T00:01:32.550Z,91.48
2022-12-25T00:06:35.954Z,91.54
2022-12-25T00:11:39.445Z,91.58
2022-12-25T00:16:42.545Z,91.61
2022-12-25T00:21:45.984Z,91.53
2022-12-25T00:26:49.319Z,91.57
2022-12-25T00:31:52.482Z,91.41
2022-12-25T00:36:55.915Z,91.39
2022-12-25T00:42:17.562Z,91.22
2022-12-25T00:47:20.848Z,90.96
2022-12-25T00:52:23.972Z,90.98
2022-12-25T00:57:27.079Z,91.11
2022-12-25T01:02:30.214Z,91.04
2022-12-25T01:07:33.800Z,90.77
2022-12-25T01:12:38.956Z,90.74
2022-12-25T01:17:42.775Z,90.82
2022-12-25T01:22:46.298Z,90.93
2022-12-25T01:27:49.194Z,91.02
2022-12-25T01:32:52.606Z,91.06
2022-12-25T01:37:55.811Z,90.92
2022-12-25T01:42:58.916Z,90.71
2022-12-25T01:48:03.669Z,90.70
2022-12-25T01:53:07.175Z,90.52
2022-12-25T01:58:10.291Z,90.43
2022-12-25T02:03:13.913Z,90.32
2022-12-25T02:08:19.052Z,90.33
2022-12-25T02:13:22.464Z,90.50
2022-12-25T02:18:31.817Z,90.50
2022-12-25T02:23:37.898Z,90.50
2022-12-25T02:28:46.834Z,90.55
2022-12-25T02:34:12.265Z,90.49
2022-12-25T02:39:38.926Z,90.43
2022-12-25T02:45:04.351Z,90.38
2022-12-25T02:50:27.423Z,90.66
2022-12-25T02:55:55.617Z,91.03
2022-12-25T03:01:24.737Z,91.06
2022-12-25T03:06:44.933Z,90.96
2022-12-25T03:11:50.908Z,90.91
2022-12-25T03:16:56.517Z,90.97
2022-12-25T03:22:18.522Z,90.93
2022-12-25T03:27:21.738Z,90.92
2022-12-25T03:32:58.985Z,91.08
2022-12-25T03:38:49.866Z,91.14
2022-12-25T03:44:11.510Z,91.26
2022-12-25T03:49:41.030Z,91.39
2022-12-25T03:55:05.331Z,91.51
2022-12-25T04:00:27.789Z,91.54
2022-12-25T04:05:49.636Z,91.42
2022-12-25T04:11:11.581Z,91.38
2022-12-25T04:16:33.632Z,91.37
2022-12-25T04:21:55.783Z,91.44
2022-12-25T04:27:17.424Z,91.54
2022-12-25T04:32:39.074Z,91.57
2022-12-25T04:37:42.172Z,91.70
2022-12-25T04:42:45.277Z,91.76
2022-12-25T04:47:48.505Z,91.60
2022-12-25T04:52:51.597Z,91.65
2022-12-25T04:57:54.697Z,91.68
2022-12-25T05:02:58.376Z,91.65
2022-12-25T05:08:01.723Z,91.63
2022-12-25T05:13:04.831Z,91.62
2022-12-25T05:18:08.038Z,91.62
2022-12-25T05:23:12.166Z,91.62
2022-12-25T05:28:15.272Z,91.61
2022-12-25T05:33:18.170Z,91.64
2022-12-25T05:38:21.385Z,91.45
2022-12-25T05:43:24.587Z,91.30
2022-12-25T05:48:27.795Z,91.20
2022-12-25T05:53:30.899Z,91.18
2022-12-25T05:58:35.233Z,91.21
2022-12-25T06:03:38.382Z,91.24
2022-12-25T06:08:42.086Z,91.26
2022-12-25T06:13:45.179Z,91.27
2022-12-25T06:18:49.709Z,91.30
2022-12-25T06:23:52.971Z,91.33
2022-12-25T06:28:56.223Z,91.32
2022-12-25T06:33:59.326Z,91.35
2022-12-25T06:39:02.956Z,91.45
2022-12-25T06:44:06.062Z,91.56
2022-12-25T06:49:10.186Z,91.58
2022-12-25T06:54:13.389Z,91.58
2022-12-25T06:59:16.804Z,91.64
2022-12-25T07:04:23.080Z,91.69
2022-12-25T07:09:26.300Z,91.75
2022-12-25T07:14:29.496Z,91.79
2022-12-25T07:19:33.008Z,91.82
2022-12-25T07:24:36.010Z,91.90
2022-12-25T07:29:39.127Z,91.93
2022-12-25T07:34:42.225Z,91.92
2022-12-25T07:39:45.328Z,91.89
2022-12-25T07:44:48.535Z,91.88
2022-12-25T07:49:51.538Z,91.86
2022-12-25T07:54:54.585Z,91.84
2022-12-25T07:59:57.760Z,91.77
2022-12-25T08:05:01.065Z,91.66
2022-12-25T08:10:05.533Z,91.58
2022-12-25T08:15:11.481Z,91.50
2022-12-25T08:20:15.911Z,91.45
2022-12-25T08:25:19.731Z,91.43
2022-12-25T08:30:23.142Z,91.21
2022-12-25T08:35:26.722Z,90.88
2022-12-25T08:40:29.965Z,90.93
2022-12-25T08:45:35.349Z,90.34
2022-12-25T08:50:38.767Z,90.07
2022-12-25T08:55:42.048Z,90.00
2022-12-25T09:00:45.259Z,89.93
2022-12-25T09:05:48.359Z,89.23
2022-12-25T09:10:51.640Z,88.84
2022-12-25T09:15:55.267Z,88.69
2022-12-25T09:20:59.935Z,88.31
2022-12-25T09:26:04.465Z,88.22
2022-12-25T09:31:07.954Z,88.31
2022-12-25T09:36:11.600Z,88.03
2022-12-25T09:41:21.474Z,88.06
2022-12-25T09:46:33.041Z,88.40
2022-12-25T09:51:42.237Z,88.55
2022-12-25T09:56:45.235Z,88.20
2022-12-25T10:02:11.999Z,87.64
2022-12-25T10:07:18.675Z,87.66
2022-12-25T10:12:30.797Z,87.88
2022-12-25T10:17:53.243Z,87.15
2022-12-25T10:23:01.669Z,86.08
2022-12-25T10:28:11.523Z,87.15
2022-12-25T10:33:17.449Z,87.35
2022-12-25T10:38:21.131Z,87.53
2022-12-25T10:43:37.664Z,86.83
2022-12-25T10:48:43.423Z,86.28
2022-12-25T10:53:47.035Z,86.74
2022-12-25T10:58:50.257Z,86.94
2022-12-25T11:03:53.645Z,87.20
2022-12-25T11:08:58.509Z,87.50
2022-12-25T11:14:02.435Z,87.64
2022-12-25T11:19:25.808Z,87.73
2022-12-25T11:24:30.274Z,87.72
2022-12-25T11:29:47.884Z,87.78
2022-12-25T11:34:51.198Z,87.76
2022-12-25T11:39:54.511Z,87.68
2022-12-25T11:45:09.062Z,87.72
2022-12-25T11:50:27.553Z,87.89
2022-12-25T11:55:33.009Z,87.86
2022-12-25T12:00:36.272Z,87.88
2022-12-25T12:05:44.753Z,87.87
2022-12-25T12:10:57.696Z,87.81
2022-12-25T12:16:01.167Z,87.73
2022-12-25T12:21:24.297Z,87.47
2022-12-25T12:26:29.080Z,87.56
2022-12-25T12:31:40.092Z,88.05
2022-12-25T12:36:43.538Z,88.50
2022-12-25T12:41:48.604Z,88.91
2022-12-25T12:46:56.314Z,89.28
2022-12-25T12:52:03.668Z,89.54
2022-12-25T12:57:21.767Z,89.73
2022-12-25T13:02:31.144Z,89.85
2022-12-25T13:07:44.343Z,90.04
2022-12-25T13:12:51.589Z,90.06
2022-12-25T13:17:56.599Z,90.18
2022-12-25T13:23:00.016Z,90.11
2022-12-25T13:28:05.271Z,90.05
2022-12-25T13:33:16.708Z,89.75
2022-12-25T13:38:20.696Z,89.50
2022-12-25T13:43:26.669Z,89.33
2022-12-25T13:48:31.200Z,89.35
2022-12-25T13:53:35.228Z,89.42
2022-12-25T13:58:39.737Z,89.53
2022-12-25T14:03:45.716Z,89.78
2022-12-25T14:08:49.319Z,90.12
2022-12-25T14:13:55.532Z,90.26
2022-12-25T14:19:01.795Z,90.29
2022-12-25T14:24:12.118Z,90.43
2022-12-25T14:29:18.204Z,90.36
2022-12-25T14:34:23.435Z,90.65
2022-12-25T14:39:30.758Z,90.66
2022-12-25T14:44:36.609Z,90.53
2022-12-25T14:49:39.913Z,90.88
2022-12-25T14:54:48.554Z,91.10
2022-12-25T14:59:59.641Z,91.18
2022-12-25T15:05:03.156Z,91.16
2022-12-25T15:10:57.553Z,91.18
2022-12-25T15:15:37.693Z,91.16
2022-12-25T15:20:41.461Z,91.31
2022-12-25T15:25:45.277Z,91.40
2022-12-25T15:30:50.363Z,91.43
2022-12-25T15:35:54.462Z,91.59
2022-12-25T15:40:58.158Z,91.73
2022-12-25T15:46:02.771Z,91.83
2022-12-25T15:51:06.638Z,91.88
2022-12-25T15:56:11.201Z,92.00
2022-12-25T16:01:18.939Z,92.25
2022-12-25T16:06:22.209Z,92.22
2022-12-25T16:11:26.030Z,92.10
2022-12-25T16:16:29.624Z,92.18
2022-12-25T16:21:38.608Z,92.35
2022-12-25T16:26:43.152Z,92.34
2022-12-25T16:31:46.598Z,92.27
2022-12-25T16:36:50.057Z,92.24
2022-12-25T16:41:53.063Z,92.27
2022-12-25T16:46:56.420Z,92.24
2022-12-25T16:51:59.994Z,92.32
2022-12-25T16:57:03.311Z,92.41
2022-12-25T17:02:07.279Z,92.39
2022-12-25T17:07:12.498Z,92.50
2022-12-25T17:12:16.206Z,92.70
2022-12-25T17:17:19.518Z,92.95
2022-12-25T17:22:22.725Z,93.07
2022-12-25T17:27:26.043Z,93.42
2022-12-25T17:32:29.859Z,93.61
2022-12-25T17:37:33.783Z,93.86
2022-12-25T17:42:38.314Z,94.08
2022-12-25T17:47:42.721Z,94.19
2022-12-25T17:52:46.738Z,94.32
2022-12-25T17:57:51.967Z,94.36
2022-12-25T18:02:56.858Z,94.40
2022-12-25T18:08:01.115Z,94.43
2022-12-25T18:13:05.043Z,94.47
2022-12-25T18:18:08.676Z,94.47
2022-12-25T18:23:12.383Z,94.47
2022-12-25T18:28:15.740Z,94.40
2022-12-25T18:33:19.307Z,94.40
2022-12-25T18:38:22.518Z,94.47
2022-12-25T18:43:51.437Z,94.52
2022-12-25T18:48:49.466Z,94.51
2022-12-25T18:53:52.929Z,94.60
2022-12-25T18:58:56.336Z,94.67
2022-12-25T19:04:05.064Z,94.69
2022-12-25T19:09:09.633Z,94.70
2022-12-25T19:14:13.071Z,94.77
2022-12-25T19:19:16.555Z,94.78
2022-12-25T19:24:19.861Z,94.72
2022-12-25T19:29:23.479Z,94.74
2022-12-25T19:34:27.643Z,94.86
2022-12-25T19:39:30.825Z,94.97
2022-12-25T19:44:34.139Z,95.09
2022-12-25T19:49:37.448Z,95.16
2022-12-25T19:54:40.560Z,95.20
2022-12-25T19:59:43.846Z,95.18
2022-12-25T20:04:47.258Z,95.13
2022-12-25T20:09:50.675Z,95.07
2022-12-25T20:14:53.875Z,95.06
2022-12-25T20:19:57.085Z,95.07
2022-12-25T20:25:00.129Z,95.13
2022-12-25T20:30:07.812Z,95.17
2022-12-25T20:35:20.708Z,95.24
2022-12-25T20:40:24.974Z,95.31
2022-12-25T20:45:30.423Z,95.37
2022-12-25T20:50:34.468Z,95.41
2022-12-25T20:55:37.984Z,95.41
2022-12-25T21:00:42.883Z,95.33
2022-12-25T21:05:53.406Z,95.27
2022-12-25T21:11:01.184Z,95.23
2022-12-25T21:16:05.564Z,95.15
2022-12-25T21:21:09.175Z,95.05
2022-12-25T21:26:23.278Z,94.95
2022-12-25T21:31:27.377Z,94.90
2022-12-25T21:36:32.747Z,94.90
2022-12-25T21:41:37.364Z,94.94
2022-12-25T21:46:41.139Z,94.94
2022-12-25T21:52:03.440Z,94.91
2022-12-25T21:57:06.763Z,94.87
2022-12-25T22:02:12.028Z,94.90
2022-12-25T22:07:18.324Z,95.02
2022-12-25T22:12:40.529Z,95.13
2022-12-25T22:18:02.506Z,95.14
2022-12-25T22:23:05.711Z,95.02
2022-12-25T22:28:08.809Z,94.99
2022-12-25T22:33:12.225Z,95.00
2022-12-25T22:38:15.834Z,95.07
2022-12-25T22:43:19.250Z,94.96
2022-12-25T22:48:22.511Z,94.90
2022-12-25T22:53:25.978Z,94.87
2022-12-25T22:58:29.285Z,94.86
2022-12-25T23:03:32.597Z,94.87
2022-12-25T23:08:35.809Z,94.79
2022-12-25T23:13:57.546Z,94.75
2022-12-25T23:19:20.128Z,94.72
2022-12-25T23:24:42.464Z,94.69
2022-12-25T23:29:46.325Z,94.76
2022-12-25T23:34:49.911Z,94.75
2022-12-25T23:39:53.314Z,94.71
2022-12-25T23:44:56.419Z,94.63
2022-12-25T23:49:59.536Z,94.53
2022-12-25T23:55:02.630Z,94.43
